Time;durP1;ratioP1;P1;durP2;ratioP2;P2;SDS_P1;SDS_P2;PMS_P1;PMS_P2;Temp;Humidity;BMP_temperature;BMP_pressure;BME280_temperature;BME280_humidity;BME280_pressure;Samples;Min_cycle;Max_cycle;Signal;HPM_P1;HPM_P2
2022/04/20 00:01:08;;;;;;;24.05;13.30;;;8.50;99.90;;;;;;4954071;28;20027;-76
2022/04/20 00:03:34;;;;;;;25.50;14.95;;;8.50;99.90;;;;;;4954234;29;20025;-76
2022/04/20 00:05:59;;;;;;;26.45;14.48;;;8.60;99.90;;;;;;4953874;29;20115;-76
2022/04/20 00:08:25;;;;;;;26.88;13.63;;;8.70;99.90;;;;;;4953351;28;20042;-76
2022/04/20 00:10:51;;;;;;;28.27;13.77;;;8.70;99.90;;;;;;4953521;29;20102;-76
2022/04/20 00:13:17;;;;;;;28.85;15.05;;;8.70;99.90;;;;;;4953462;28;20027;-76
2022/04/20 00:15:42;;;;;;;24.60;14.30;;;8.70;99.90;;;;;;4953138;28;20518;-76
2022/04/20 00:18:08;;;;;;;26.92;14.25;;;8.60;99.90;;;;;;4935297;29;20503;-76
2022/04/20 00:20:34;;;;;;;26.40;14.85;;;8.70;99.90;;;;;;4952854;28;20547;-76
2022/04/20 00:22:59;;;;;;;28.98;16.13;;;8.50;99.90;;;;;;4952237;29;20019;-76
2022/04/20 00:25:25;;;;;;;23.42;13.65;;;8.60;99.90;;;;;;4953692;29;20031;-76
2022/04/20 00:27:51;;;;;;;24.25;14.73;;;8.70;99.90;;;;;;4953454;28;20019;-76
2022/04/20 00:30:16;;;;;;;29.27;14.05;;;8.70;99.90;;;;;;4953584;28;20027;-76
2022/04/20 00:32:42;;;;;;;24.73;13.27;;;8.60;99.90;;;;;;4953789;29;20019;-76
2022/04/20 00:35:10;;;;;;;23.60;13.23;;;8.60;99.90;;;;;;4953340;28;20034;-76
2022/04/20 00:37:37;;;;;;;25.08;14.68;;;8.60;99.90;;;;;;4953993;28;20383;-76
2022/04/20 00:40:04;;;;;;;24.67;12.70;;;8.60;99.90;;;;;;4936432;28;20121;-76
2022/04/20 00:42:32;;;;;;;26.35;14.38;;;8.60;99.90;;;;;;4951577;28;20015;-76
2022/04/20 00:44:58;;;;;;;25.75;14.38;;;8.60;99.90;;;;;;4953221;28;20057;-78
2022/04/20 00:47:24;;;;;;;25.35;14.40;;;8.70;99.90;;;;;;4953236;28;20027;-78
2022/04/20 00:49:51;;;;;;;27.95;13.52;;;8.60;99.90;;;;;;4952883;29;20542;-75
2022/04/20 00:52:16;;;;;;;25.05;13.75;;;8.60;99.90;;;;;;4952805;29;20499;-75
2022/04/20 00:54:42;;;;;;;27.38;14.30;;;8.70;99.90;;;;;;4952975;29;20055;-75
2022/04/20 00:57:08;;;;;;;24.20;13.48;;;8.60;99.90;;;;;;4952562;28;20534;-75
2022/04/20 00:59:36;;;;;;;25.17;13.93;;;8.60;99.90;;;;;;4952707;28;20070;-75
2022/04/20 01:02:03;;;;;;;24.13;13.70;;;8.50;99.90;;;;;;4952861;28;20019;-75
2022/04/20 01:04:31;;;;;;;25.88;13.10;;;8.50;99.90;;;;;;4953317;29;20024;-75
2022/04/20 01:07:08;;;;;;;26.25;13.30;;;8.50;99.90;;;;;;4952030;28;20085;-75
2022/04/20 01:09:34;;;;;;;25.85;13.55;;;8.50;99.90;;;;;;4952844;28;20757;-75
2022/04/20 01:12:00;;;;;;;23.20;12.32;;;8.50;99.90;;;;;;4952408;28;20031;-75
2022/04/20 01:14:26;;;;;;;26.20;13.80;;;8.50;99.90;;;;;;4952650;28;20096;-75
2022/04/20 01:16:51;;;;;;;24.77;13.88;;;8.50;99.90;;;;;;4952447;28;20375;-75
2022/04/20 01:19:17;;;;;;;21.77;12.75;;;8.50;99.90;;;;;;4952559;28;20019;-75
2022/04/20 01:21:43;;;;;;;25.10;12.68;;;8.40;99.90;;;;;;4953017;28;20026;-75
2022/04/20 01:24:08;;;;;;;22.80;13.63;;;8.40;99.90;;;;;;4952580;28;20015;-75
2022/04/20 01:26:35;;;;;;;23.50;13.88;;;8.40;99.90;;;;;;4952204;29;20051;-76
2022/04/20 01:29:03;;;;;;;25.13;14.40;;;8.50;99.90;;;;;;4951269;28;20480;-76
2022/04/20 01:31:30;;;;;;;22.33;13.25;;;8.40;99.90;;;;;;4952278;28;20046;-76
2022/04/20 01:33:55;;;;;;;28.67;13.38;;;8.30;99.90;;;;;;4952293;29;20468;-75
2022/04/20 01:36:21;;;;;;;22.05;13.43;;;8.30;99.90;;;;;;4950690;28;20031;-75
2022/04/20 01:38:47;;;;;;;23.02;13.35;;;8.40;99.90;;;;;;4951879;28;20103;-76
2022/04/20 01:41:14;;;;;;;23.25;13.48;;;8.30;99.90;;;;;;4951629;29;20403;-76
2022/04/20 01:43:40;;;;;;;27.27;14.52;;;8.30;99.90;;;;;;4935097;29;20043;-76
2022/04/20 01:46:05;;;;;;;24.95;13.88;;;8.30;99.90;;;;;;4951639;28;20534;-75
2022/04/20 01:48:31;;;;;;;24.60;14.80;;;8.20;99.90;;;;;;4952450;28;20028;-75
2022/04/20 01:53:41;;;;;;;25.35;14.05;;;8.20;99.90;;;;;;4942796;28;20052;-75
2022/04/20 01:56:07;;;;;;;23.75;13.88;;;8.20;99.90;;;;;;4951699;28;20399;-75
2022/04/20 01:58:34;;;;;;;25.55;13.63;;;8.30;99.90;;;;;;4952043;28;20174;-75
2022/04/20 02:02:34;;;;;;;28.48;14.38;;;8.40;99.90;;;;;;4952394;29;20035;-76
2022/04/20 02:03:47;;;;;;;24.02;14.45;;;8.30;99.90;;;;;;4951889;28;20468;-75
2022/04/20 02:06:14;;;;;;;27.17;14.75;;;8.20;99.90;;;;;;4952711;28;20031;-75
2022/04/20 02:08:40;;;;;;;21.75;14.10;;;8.30;99.90;;;;;;4952129;28;20051;-75
2022/04/20 02:11:06;;;;;;;26.23;14.88;;;8.30;99.90;;;;;;4951816;28;20031;-75
2022/04/20 02:13:32;;;;;;;24.52;14.10;;;8.30;99.90;;;;;;4952713;28;20066;-76
2022/04/20 02:15:59;;;;;;;29.38;16.08;;;8.30;99.90;;;;;;4952054;29;20031;-75
2022/04/20 02:18:24;;;;;;;29.30;15.90;;;8.30;99.90;;;;;;4954364;28;20023;-75
2022/04/20 02:20:50;;;;;;;29.80;15.40;;;8.30;99.90;;;;;;4955302;28;20042;-75
2022/04/20 02:23:16;;;;;;;29.55;15.07;;;8.30;99.90;;;;;;4955652;28;20084;-75
2022/04/20 02:25:42;;;;;;;27.42;14.88;;;8.30;99.90;;;;;;4955681;29;20114;-75
2022/04/20 02:28:07;;;;;;;30.58;16.77;;;8.30;99.90;;;;;;4955973;28;20095;-76
2022/04/20 02:30:33;;;;;;;27.02;15.52;;;8.30;99.90;;;;;;4955782;28;20460;-75
2022/04/20 02:32:59;;;;;;;26.77;15.18;;;8.30;99.90;;;;;;4955412;28;20023;-76
2022/04/20 02:35:27;;;;;;;24.77;14.57;;;8.30;99.90;;;;;;4956144;29;20696;-75
2022/04/20 02:37:53;;;;;;;25.45;14.90;;;8.30;99.90;;;;;;4979571;23;20034;-81
2022/04/20 02:40:19;;;;;;;24.17;14.50;;;8.20;99.90;;;;;;4957768;28;20476;-80
2022/04/20 02:42:45;;;;;;;28.63;15.57;;;8.20;99.90;;;;;;4975227;28;20047;-80
2022/04/20 02:45:11;;;;;;;29.67;15.65;;;8.10;99.90;;;;;;4974549;28;20602;-80
2022/04/20 02:47:37;;;;;;;29.40;15.77;;;8.20;99.90;;;;;;4957529;28;20038;-80
2022/04/20 02:50:03;;;;;;;25.98;15.30;;;8.20;99.90;;;;;;4958000;28;20101;-80
2022/04/20 02:52:28;;;;;;;27.90;15.45;;;8.10;99.90;;;;;;4974388;28;20027;-81
2022/04/20 02:54:54;;;;;;;30.80;15.80;;;8.10;99.90;;;;;;4974063;28;20035;-81
2022/04/20 02:57:20;;;;;;;28.90;15.40;;;8.00;99.90;;;;;;4974506;28;20073;-80
2022/04/20 02:59:45;;;;;;;31.85;15.57;;;8.00;99.90;;;;;;4974441;28;20085;-81
2022/04/20 03:02:12;;;;;;;32.40;16.40;;;7.90;99.90;;;;;;4974237;28;20058;-81
2022/04/20 03:04:37;;;;;;;31.65;16.92;;;7.80;99.90;;;;;;4974682;28;20018;-81
2022/04/20 03:07:03;;;;;;;32.75;15.90;;;7.90;99.90;;;;;;4974657;28;20026;-81
2022/04/20 03:09:29;;;;;;;29.15;16.17;;;7.80;99.90;;;;;;4967930;28;20038;-81
2022/04/20 03:11:55;;;;;;;31.05;16.30;;;7.80;99.90;;;;;;4974278;28;20029;-81
2022/04/20 03:14:20;;;;;;;30.00;16.20;;;7.80;99.90;;;;;;4974068;28;20026;-80
2022/04/20 03:16:46;;;;;;;32.63;17.50;;;7.70;99.90;;;;;;4957007;28;20030;-81
2022/04/20 03:19:12;;;;;;;32.08;16.90;;;7.70;99.90;;;;;;4973727;28;20050;-81
2022/04/20 03:21:37;;;;;;;30.90;17.08;;;7.80;99.90;;;;;;4974698;28;20034;-81
2022/04/20 03:24:03;;;;;;;30.42;17.75;;;7.80;99.90;;;;;;4973886;28;20061;-81
2022/04/20 03:26:29;;;;;;;30.58;16.63;;;7.80;99.90;;;;;;4974124;28;20387;-81
2022/04/20 03:28:55;;;;;;;30.50;17.20;;;7.80;99.90;;;;;;4973557;28;20023;-80
2022/04/20 03:31:20;;;;;;;32.08;17.80;;;7.80;99.90;;;;;;4973926;28;20027;-81
2022/04/20 03:33:46;;;;;;;33.38;17.50;;;7.70;99.90;;;;;;4973889;28;20486;-81
2022/04/20 03:36:12;;;;;;;35.47;17.40;;;7.70;99.90;;;;;;4974205;28;20034;-80
2022/04/20 03:38:37;;;;;;;31.60;17.75;;;7.70;99.90;;;;;;4968207;23;20039;-77
2022/04/20 03:41:06;;;;;;;31.98;17.10;;;7.70;99.90;;;;;;4955455;28;20054;-77
2022/04/20 03:43:32;;;;;;;32.78;17.65;;;7.60;99.90;;;;;;4974260;28;20022;-77
2022/04/20 03:45:58;;;;;;;34.05;18.52;;;7.60;99.90;;;;;;4973695;28;20039;-77
2022/04/20 03:48:24;;;;;;;39.03;17.83;;;7.50;99.90;;;;;;4973715;28;20027;-77
2022/04/20 03:50:50;;;;;;;34.70;18.10;;;7.50;99.90;;;;;;4956738;28;20384;-77
2022/04/20 03:53:16;;;;;;;34.63;18.10;;;7.50;99.90;;;;;;4955741;28;20026;-77
2022/04/20 03:55:43;;;;;;;41.75;18.73;;;7.40;99.90;;;;;;4973457;28;20066;-77
2022/04/20 03:58:09;;;;;;;33.03;18.80;;;7.30;99.90;;;;;;4973787;28;20030;-77
2022/04/20 04:00:34;;;;;;;30.85;17.60;;;7.40;99.90;;;;;;4973257;28;20027;-77
2022/04/20 04:03:00;;;;;;;33.55;18.80;;;7.30;99.90;;;;;;4955949;28;20074;-77
2022/04/20 04:05:26;;;;;;;35.28;18.98;;;7.20;99.90;;;;;;4956495;28;20037;-77
2022/04/20 04:07:51;;;;;;;41.53;20.23;;;7.20;99.90;;;;;;4955656;28;20037;-77
2022/04/20 04:10:18;;;;;;;36.38;19.98;;;7.20;99.90;;;;;;4970119;28;20030;-77
2022/04/20 04:12:44;;;;;;;36.58;20.15;;;7.10;99.90;;;;;;4956227;28;20027;-77
2022/04/20 04:15:10;;;;;;;35.88;18.98;;;7.20;99.90;;;;;;4973268;28;20086;-76
2022/04/20 04:17:36;;;;;;;36.67;19.67;;;7.10;99.90;;;;;;4973120;28;20037;-77
2022/04/20 04:20:04;;;;;;;34.92;17.85;;;7.00;99.90;;;;;;4955674;28;20113;-77
2022/04/20 04:22:30;;;;;;;43.78;20.50;;;7.00;99.90;;;;;;4959516;28;20019;-77
2022/04/20 04:24:57;;;;;;;41.90;21.05;;;7.00;99.90;;;;;;4972181;28;20100;-77
2022/04/20 04:27:22;;;;;;;39.58;20.55;;;6.90;99.90;;;;;;4972586;28;20034;-77
2022/04/20 04:29:48;;;;;;;44.00;22.52;;;6.90;99.90;;;;;;4972757;28;20026;-77
2022/04/20 04:32:14;;;;;;;40.78;20.73;;;7.00;99.90;;;;;;4972896;28;20110;-77
2022/04/20 04:34:40;;;;;;;41.92;20.42;;;7.00;99.90;;;;;;4972759;28;20030;-77
2022/04/20 04:37:06;;;;;;;37.88;19.80;;;7.00;99.90;;;;;;4973065;28;20058;-77
2022/04/20 04:39:32;;;;;;;39.75;21.60;;;7.00;99.90;;;;;;4975815;23;20042;-81
2022/04/20 04:42:00;;;;;;;38.65;20.45;;;7.10;99.90;;;;;;4971575;28;20533;-81
2022/04/20 04:44:26;;;;;;;35.08;19.88;;;7.10;99.90;;;;;;4972862;28;20026;-80
2022/04/20 04:49:36;;;;;;;38.85;20.70;;;7.10;99.90;;;;;;4972548;28;20403;-81
2022/04/20 04:52:04;;;;;;;52.25;23.80;;;7.10;99.90;;;;;;4972459;28;20508;-80
2022/04/20 04:54:30;;;;;;;34.42;19.48;;;7.20;99.90;;;;;;4972435;28;20023;-80
2022/04/20 04:56:56;;;;;;;45.63;22.20;;;7.20;99.90;;;;;;4955155;28;20488;-81
2022/04/20 04:59:21;;;;;;;38.17;20.75;;;7.10;99.90;;;;;;4972309;28;20455;-80
2022/04/20 05:01:47;;;;;;;40.10;20.55;;;7.10;99.90;;;;;;4972633;28;20108;-81
2022/04/20 05:04:13;;;;;;;37.78;21.38;;;7.20;99.90;;;;;;4972356;28;20070;-81
2022/04/20 05:06:39;;;;;;;45.42;20.27;;;7.20;99.90;;;;;;4972478;28;20031;-81
2022/04/20 05:09:05;;;;;;;45.70;22.77;;;7.10;99.90;;;;;;4968424;28;20033;-81
2022/04/20 05:11:30;;;;;;;43.92;22.48;;;7.20;99.90;;;;;;4972537;28;20538;-81
2022/04/20 05:13:56;;;;;;;41.13;21.02;;;7.20;99.90;;;;;;4971680;28;20035;-81
2022/04/20 05:16:23;;;;;;;49.50;23.58;;;7.20;99.90;;;;;;4971983;28;20031;-81
2022/04/20 05:18:49;;;;;;;45.38;23.75;;;7.20;99.90;;;;;;4971997;28;20479;-81
2022/04/20 05:21:14;;;;;;;41.65;21.33;;;7.30;99.90;;;;;;4972036;28;20061;-81
2022/04/20 05:23:40;;;;;;;45.10;21.92;;;7.40;99.90;;;;;;4971632;28;20027;-81
2022/04/20 05:26:06;;;;;;;41.95;22.13;;;7.40;99.90;;;;;;4972171;28;20038;-81
2022/04/20 05:28:31;;;;;;;40.70;21.10;;;7.50;99.90;;;;;;4971749;28;20030;-81
2022/04/20 05:30:57;;;;;;;43.97;22.70;;;7.50;99.90;;;;;;4954454;28;20038;-81
2022/04/20 05:33:23;;;;;;;49.45;23.00;;;7.60;99.90;;;;;;4971999;28;20471;-80
2022/04/20 05:35:48;;;;;;;44.50;22.83;;;7.70;99.90;;;;;;4971356;28;20031;-81
2022/04/20 05:43:42;;;;;;;39.38;20.75;;;7.80;99.90;;;;;;4991348;28;20057;-77
2022/04/20 05:46:09;;;;;;;41.70;22.52;;;7.80;99.90;;;;;;4991295;28;20030;-77
2022/04/20 05:48:35;;;;;;;38.45;21.50;;;7.90;99.90;;;;;;4990524;28;20022;-77
2022/04/20 05:51:01;;;;;;;46.80;23.75;;;7.90;99.90;;;;;;4990444;28;20434;-77
2022/04/20 05:53:27;;;;;;;41.75;22.40;;;7.90;99.90;;;;;;4973526;28;20018;-77
2022/04/20 05:55:52;;;;;;;42.92;22.40;;;7.90;99.90;;;;;;4991080;28;20039;-77
2022/04/20 05:58:18;;;;;;;42.03;20.92;;;8.00;99.90;;;;;;4973317;28;20026;-77
2022/04/20 06:00:44;;;;;;;39.28;22.70;;;8.00;99.90;;;;;;4991191;28;20076;-77
2022/04/20 06:03:11;;;;;;;41.20;21.02;;;8.20;99.90;;;;;;4990873;28;20475;-77
2022/04/20 06:05:37;;;;;;;39.53;21.38;;;8.20;99.90;;;;;;4990795;28;20026;-77
2022/04/20 06:08:03;;;;;;;39.22;20.67;;;8.20;99.90;;;;;;4990673;28;20030;-77
2022/04/20 06:10:30;;;;;;;39.75;21.23;;;8.20;99.90;;;;;;4986276;28;20053;-77
2022/04/20 06:12:56;;;;;;;43.80;21.42;;;8.30;99.90;;;;;;4973385;28;20429;-77
2022/04/20 06:15:22;;;;;;;37.80;20.67;;;8.30;99.90;;;;;;4990678;28;20026;-77
2022/04/20 06:17:47;;;;;;;39.63;19.85;;;8.30;99.90;;;;;;4973214;28;20033;-77
2022/04/20 06:20:13;;;;;;;41.58;22.23;;;8.50;99.90;;;;;;4973216;28;20478;-77
2022/04/20 06:22:39;;;;;;;40.40;21.95;;;8.60;99.90;;;;;;4973372;28;20085;-77
2022/04/20 06:25:05;;;;;;;45.35;22.92;;;8.60;99.90;;;;;;4989811;28;20022;-78
2022/04/20 06:27:31;;;;;;;38.60;20.33;;;8.70;99.90;;;;;;4990318;28;20039;-78
2022/04/20 06:29:58;;;;;;;41.20;19.92;;;8.80;99.90;;;;;;4991109;28;20097;-78
2022/04/20 06:32:24;;;;;;;42.15;20.90;;;8.80;99.90;;;;;;4990486;28;20030;-78
2022/04/20 06:34:53;;;;;;;37.95;20.35;;;9.00;99.90;;;;;;4990386;28;20062;-78
2022/04/20 06:37:19;;;;;;;41.80;20.85;;;9.00;99.90;;;;;;4990507;28;20053;-78
2022/04/20 06:39:49;;;;;;;37.72;21.70;;;9.10;99.90;;;;;;4968435;28;20475;-78
2022/04/20 06:42:15;;;;;;;43.40;21.67;;;9.20;99.90;;;;;;4972538;28;20030;-77
2022/04/20 06:44:41;;;;;;;35.90;19.95;;;9.30;99.90;;;;;;4972659;28;20041;-78
2022/04/20 06:47:07;;;;;;;38.03;19.63;;;9.30;99.90;;;;;;4990652;28;20018;-78
2022/04/20 06:49:33;;;;;;;33.60;18.45;;;9.40;99.90;;;;;;4990219;28;20053;-77
2022/04/20 07:00:12;;;;;;;37.60;19.17;;;9.70;99.90;;;;;;4990313;28;20502;-77
2022/04/20 07:02:37;;;;;;;38.13;19.48;;;9.80;99.90;;;;;;4990672;28;20033;-77
2022/04/20 07:05:05;;;;;;;37.53;21.13;;;9.90;99.90;;;;;;4992320;28;20031;-78
2022/04/20 07:07:37;;;;;;;40.42;21.67;;;10.00;99.90;;;;;;4993540;28;20173;-77
2022/04/20 07:10:04;;;;;;;40.45;21.05;;;10.00;99.90;;;;;;4964078;28;20035;-77
2022/04/20 07:12:30;;;;;;;41.67;19.85;;;10.20;99.90;;;;;;4975519;28;20105;-78
2022/04/20 07:14:56;;;;;;;39.65;19.30;;;10.30;99.90;;;;;;4975093;28;20062;-78
2022/04/20 07:17:21;;;;;;;36.47;20.02;;;10.50;99.90;;;;;;4975072;28;20541;-78
2022/04/20 07:19:47;;;;;;;31.98;17.80;;;10.60;99.90;;;;;;4974805;28;20034;-78
2022/04/20 07:22:13;;;;;;;33.55;19.42;;;10.70;99.90;;;;;;4975084;28;20031;-78
2022/04/20 07:24:38;;;;;;;33.45;18.70;;;10.90;99.90;;;;;;4974433;28;20050;-78
2022/04/20 07:27:04;;;;;;;32.50;19.13;;;11.00;99.90;;;;;;4975031;28;20030;-78
2022/04/20 07:29:30;;;;;;;40.25;18.80;;;11.10;99.90;;;;;;4984472;28;20096;-78
2022/04/20 07:31:56;;;;;;;30.38;18.42;;;11.30;99.90;;;;;;4975188;28;20027;-78
2022/04/20 07:34:21;;;;;;;35.33;17.88;;;11.30;99.90;;;;;;4964066;28;20587;-78
2022/04/20 07:36:49;;;;;;;41.67;19.15;;;11.30;99.90;;;;;;4963622;28;20728;-78
2022/04/20 07:39:15;;;;;;;32.92;18.00;;;11.40;99.90;;;;;;4984627;28;20027;-78
2022/04/20 07:41:41;;;;;;;35.38;18.13;;;11.50;99.90;;;;;;4993188;28;20061;-77
2022/04/20 07:44:06;;;;;;;30.80;17.30;;;11.40;99.90;;;;;;4992202;28;20054;-78
2022/04/20 07:46:32;;;;;;;32.50;16.65;;;11.40;99.90;;;;;;4990508;28;20023;-77
2022/04/20 07:50:17;;;;;;;35.95;16.48;;;11.40;99.90;;;;;;4992142;28;20034;-78
2022/04/20 07:51:44;;;;;;;31.60;17.13;;;11.50;99.90;;;;;;4992176;28;20030;-77
2022/04/20 07:54:09;;;;;;;29.92;16.20;;;11.60;99.90;;;;;;4974006;28;20027;-78
2022/04/20 07:56:35;;;;;;;32.13;16.77;;;11.80;99.90;;;;;;4974279;28;20078;-78
2022/04/20 07:59:01;;;;;;;29.90;15.68;;;11.90;99.90;;;;;;4971624;28;20028;-78
2022/04/20 08:01:26;;;;;;;33.58;15.88;;;12.10;99.90;;;;;;4985438;28;20061;-77
2022/04/20 08:03:52;;;;;;;26.55;14.75;;;12.20;99.90;;;;;;4973090;28;20022;-77
2022/04/20 08:06:18;;;;;;;28.60;15.73;;;12.30;99.90;;;;;;4992581;28;20077;-77
2022/04/20 08:08:43;;;;;;;28.05;14.88;;;12.40;99.90;;;;;;4987507;23;20039;-77
2022/04/20 08:11:09;;;;;;;26.98;15.52;;;12.60;99.90;;;;;;4967347;28;20558;-77
2022/04/20 08:16:18;;;;;;;23.33;14.00;;;12.80;99.90;;;;;;4973237;28;20049;-77
2022/04/20 08:18:44;;;;;;;24.63;14.40;;;12.90;99.90;;;;;;4972711;28;20022;-76
2022/04/20 08:21:10;;;;;;;25.45;14.65;;;13.00;99.30;;;;;;4971008;28;20150;-76
2022/04/20 08:23:37;;;;;;;24.33;13.32;;;12.90;98.30;;;;;;4972986;28;20023;-76
2022/04/20 08:26:03;;;;;;;25.95;14.65;;;13.00;98.90;;;;;;4970407;28;20053;-76
2022/04/20 08:28:30;;;;;;;22.52;13.38;;;13.00;98.10;;;;;;4956694;28;20094;-77
2022/04/20 08:30:56;;;;;;;21.88;13.27;;;13.20;98.30;;;;;;4960610;28;20022;-76
2022/04/20 08:33:22;;;;;;;19.67;12.48;;;13.30;98.50;;;;;;4950070;28;20019;-76
2022/04/20 08:35:48;;;;;;;23.73;12.55;;;13.30;97.70;;;;;;4970250;28;20454;-76
2022/04/20 08:38:14;;;;;;;21.08;12.00;;;13.40;95.30;;;;;;4971632;28;20026;-76
2022/04/20 08:40:41;;;;;;;20.17;10.93;;;13.60;95.20;;;;;;4972659;28;20023;-76
2022/04/20 08:43:08;;;;;;;16.55;10.07;;;13.90;94.20;;;;;;4971254;28;20479;-76
2022/04/20 08:45:41;;;;;;;15.13;9.40;;;14.40;93.80;;;;;;4955271;28;20038;-76
2022/04/20 08:48:07;;;;;;;16.60;10.43;;;15.40;88.90;;;;;;4955503;28;20022;-77
2022/04/20 08:50:33;;;;;;;15.48;9.32;;;16.10;80.40;;;;;;4971865;28;20360;-76
2022/04/20 08:52:59;;;;;;;23.10;10.13;;;16.70;76.20;;;;;;4972704;28;20030;-76
2022/04/20 08:55:25;;;;;;;16.60;9.10;;;17.10;70.80;;;;;;4972734;28;20543;-77
2022/04/20 08:57:52;;;;;;;15.77;8.98;;;17.30;70.50;;;;;;4972274;28;20097;-77
2022/04/20 09:00:22;;;;;;;16.40;8.55;;;17.80;71.90;;;;;;4972242;28;20076;-77
2022/04/20 09:02:52;;;;;;;13.88;8.18;;;18.10;62.70;;;;;;4972194;28;20022;-77
2022/04/20 09:05:19;;;;;;;14.38;8.40;;;18.90;62.80;;;;;;4972518;28;20026;-77
2022/04/20 09:10:18;;;;;;;11.88;7.28;;;19.00;58.40;;;;;;4951692;28;20043;-80
2022/04/20 09:12:45;;;;;;;14.00;7.10;;;19.10;58.50;;;;;;4936719;28;20499;-79
2022/04/20 09:15:27;;;;;;;12.02;6.75;;;19.30;57.10;;;;;;4954086;28;20031;-79
2022/04/20 09:17:52;;;;;;;16.70;7.15;;;19.40;56.40;;;;;;4952595;28;20027;-79
2022/04/20 09:20:19;;;;;;;12.65;7.47;;;19.50;55.00;;;;;;4953533;28;20362;-78
2022/04/20 09:23:18;;;;;;;13.30;6.55;;;19.40;53.50;;;;;;4954065;28;20362;-79
2022/04/20 09:25:48;;;;;;;11.43;6.30;;;18.80;58.70;;;;;;4921748;28;20042;-78
2022/04/20 09:28:14;;;;;;;13.68;6.32;;;18.50;56.20;;;;;;4953241;28;20481;-78
2022/04/20 09:30:42;;;;;;;11.70;7.00;;;18.50;61.10;;;;;;4953845;29;20114;-79
2022/04/20 09:33:10;;;;;;;9.13;5.88;;;18.70;56.90;;;;;;4953662;28;20106;-79
2022/04/20 09:35:47;;;;;;;13.48;6.15;;;19.70;57.40;;;;;;4953322;28;20054;-79
2022/04/20 09:38:15;;;;;;;12.70;6.43;;;20.50;52.70;;;;;;4952831;28;20075;-79
2022/04/20 09:40:41;;;;;;;8.65;5.78;;;21.30;51.10;;;;;;4953384;28;20039;-79
2022/04/20 09:43:09;;;;;;;9.60;5.90;;;22.50;48.60;;;;;;4953635;28;20019;-79
2022/04/20 09:45:36;;;;;;;9.73;5.90;;;23.50;48.00;;;;;;4953639;28;20027;-79
2022/04/20 09:51:20;;;;;;;11.13;5.63;;;25.70;42.10;;;;;;4953930;28;20047;-80
2022/04/20 09:53:49;;;;;;;8.88;4.10;;;26.30;38.00;;;;;;4953339;28;20082;-80
2022/04/20 09:56:20;;;;;;;7.07;3.95;;;25.90;39.30;;;;;;4936342;29;20023;-81
2022/04/20 09:58:46;;;;;;;10.38;5.60;;;25.60;39.10;;;;;;4957144;28;20027;-80
2022/04/20 10:01:27;;;;;;;8.93;3.90;;;24.30;36.10;;;;;;4972668;28;20034;-79
2022/04/20 10:03:54;;;;;;;7.80;4.40;;;24.50;38.00;;;;;;4972528;28;20023;-79
2022/04/20 10:06:19;;;;;;;14.20;4.70;;;24.10;42.00;;;;;;4972341;28;20054;-79
2022/04/20 11:08:19;;;;;;;6.70;2.90;;;27.60;29.40;;;;;;5906317;23;20376;-78
2022/04/20 11:18:38;;;;;;;8.80;3.47;;;28.00;30.20;;;;;;4994383;28;20055;-77
2022/04/20 11:19:20;;;;;;;7.80;3.53;;;26.10;31.30;;;;;;4993733;28;20077;-79
2022/04/20 11:21:55;;;;;;;9.95;3.30;;;26.50;33.30;;;;;;4994206;28;20389;-79
2022/04/20 11:24:30;;;;;;;8.27;3.20;;;27.40;33.80;;;;;;4993558;28;20466;-79
2022/04/20 11:26:58;;;;;;;7.55;3.10;;;28.20;31.40;;;;;;4975753;28;20049;-79
2022/04/20 11:29:28;;;;;;;7.80;3.22;;;30.20;30.80;;;;;;4993551;28;20456;-79
2022/04/20 11:32:04;;;;;;;7.90;4.00;;;30.00;29.10;;;;;;4993507;28;20034;-79
2022/04/20 11:34:36;;;;;;;10.00;4.07;;;29.50;28.90;;;;;;4993577;28;20022;-80
2022/04/20 11:37:06;;;;;;;5.30;2.92;;;29.50;28.40;;;;;;4962647;28;20467;-79
2022/04/20 11:39:33;;;;;;;10.23;3.53;;;30.80;30.00;;;;;;4991997;28;20014;-79
2022/04/20 11:42:04;;;;;;;7.93;3.70;;;31.50;29.80;;;;;;4993524;28;20033;-79
2022/04/20 11:44:31;;;;;;;10.07;3.95;;;32.00;28.90;;;;;;4993592;28;20031;-79
2022/04/20 11:47:02;;;;;;;4.55;2.95;;;31.60;27.10;;;;;;4993039;28;20177;-80
2022/04/20 11:49:33;;;;;;;9.15;3.08;;;32.80;28.00;;;;;;4992609;28;20026;-80
2022/04/20 11:51:59;;;;;;;;;;;33.10;28.10;;;;;;4993184;28;20033;-79
2022/04/20 11:54:30;;;;;;;8.52;3.17;;;32.70;29.30;;;;;;4993043;28;19909;-80
2022/04/20 11:56:56;;;;;;;5.85;3.38;;;32.10;27.30;;;;;;4975659;28;20569;-79
2022/04/20 11:59:24;;;;;;;9.60;3.80;;;32.10;27.20;;;;;;4992813;28;20057;-79
2022/04/20 12:01:50;;;;;;;13.13;3.60;;;32.60;26.80;;;;;;4993149;28;20509;-80
2022/04/20 12:04:21;;;;;;;7.43;3.42;;;32.30;26.20;;;;;;4993395;28;20026;-79
2022/04/20 12:07:00;;;;;;;6.40;3.33;;;34.10;27.10;;;;;;4975401;28;20113;-80
2022/04/20 13:09:06;;;;;;;7.32;3.63;;;33.30;24.80;;;;;;5563962;23;20047;-77
2022/04/20 13:11:32;;;;;;;5.13;3.65;;;34.10;23.50;;;;;;4973272;28;20023;-78
2022/04/20 13:13:58;;;;;;;8.20;3.33;;;34.40;24.30;;;;;;4973263;28;20588;-78
2022/04/20 13:16:24;;;;;;;8.45;3.28;;;34.60;23.80;;;;;;4973195;28;20098;-78
2022/04/20 13:18:51;;;;;;;6.55;3.30;;;34.10;22.90;;;;;;4955828;28;20035;-79
2022/04/20 13:21:16;;;;;;;6.95;3.60;;;33.80;23.10;;;;;;4973270;28;20054;-78
2022/04/20 13:23:42;;;;;;;5.50;3.30;;;31.80;22.80;;;;;;4972974;28;20065;-78
2022/04/20 13:28:54;;;;;;;4.20;3.05;;;31.70;23.40;;;;;;4973071;28;20438;-78
2022/04/20 13:31:20;;;;;;;4.80;3.30;;;33.50;23.40;;;;;;4973068;28;20022;-78
2022/04/20 13:33:46;;;;;;;3.78;2.75;;;33.40;22.70;;;;;;4973041;28;20030;-78
2022/04/20 13:36:13;;;;;;;4.45;3.10;;;34.20;22.60;;;;;;4972871;28;20027;-77
2022/04/20 13:38:39;;;;;;;6.20;3.25;;;33.50;22.30;;;;;;4955188;28;20019;-78
2022/04/20 13:41:05;;;;;;;10.45;3.80;;;34.10;20.90;;;;;;4973062;28;20029;-79
2022/04/20 13:43:31;;;;;;;4.63;3.30;;;32.40;22.00;;;;;;4972824;28;20015;-78
2022/04/20 13:45:57;;;;;;;4.43;3.00;;;31.50;23.40;;;;;;4972663;28;20026;-78
2022/04/20 13:48:23;;;;;;;4.20;3.53;;;31.70;23.10;;;;;;4972679;28;20029;-77
2022/04/20 13:50:49;;;;;;;4.85;2.95;;;32.20;23.00;;;;;;4971069;28;20031;-78
2022/04/20 13:53:15;;;;;;;4.85;3.00;;;33.60;23.00;;;;;;4988704;28;20052;-77
2022/04/20 13:55:40;;;;;;;6.28;3.53;;;32.10;21.80;;;;;;4989189;28;20030;-78
2022/04/20 13:58:07;;;;;;;8.07;3.80;;;31.40;22.50;;;;;;4972811;28;20037;-77
2022/04/20 14:00:34;;;;;;;5.13;3.35;;;30.10;22.60;;;;;;4990302;28;20015;-78
2022/04/20 14:02:59;;;;;;;4.25;3.00;;;29.50;25.10;;;;;;4990082;28;20030;-78
2022/04/20 14:05:27;;;;;;;8.82;3.85;;;28.60;25.70;;;;;;4991150;28;20054;-78
2022/04/20 14:07:53;;;;;;;5.15;3.20;;;30.90;24.40;;;;;;4991089;28;20471;-78
2022/04/20 15:09:52;;;;;;;4.82;2.80;;;25.50;27.10;;;;;;5267549;23;20039;-78
2022/04/20 15:12:19;;;;;;;4.88;3.35;;;25.10;27.90;;;;;;4975938;28;20034;-78
2022/04/20 15:14:45;;;;;;;3.50;2.95;;;24.70;27.30;;;;;;4975677;28;20027;-78
2022/04/20 15:17:11;;;;;;;11.57;3.67;;;25.10;28.80;;;;;;4975638;28;20499;-78
2022/04/20 15:19:37;;;;;;;5.25;2.60;;;24.50;28.10;;;;;;4974138;28;20038;-78
2022/04/20 15:22:05;;;;;;;4.75;2.53;;;23.50;28.90;;;;;;4975413;28;20053;-78
2022/04/20 15:24:31;;;;;;;5.50;3.00;;;23.40;29.80;;;;;;4957036;28;20023;-77
2022/04/20 15:26:57;;;;;;;5.00;2.75;;;23.10;29.20;;;;;;4974668;28;20035;-77
2022/04/20 15:29:22;;;;;;;5.78;3.00;;;23.20;30.20;;;;;;4975262;28;20578;-77
2022/04/20 15:31:51;;;;;;;6.30;3.17;;;23.10;29.20;;;;;;4975353;28;20027;-78
2022/04/20 15:34:17;;;;;;;5.55;3.40;;;23.40;29.10;;;;;;4975105;28;20089;-78
2022/04/20 15:36:42;;;;;;;6.22;2.65;;;23.20;29.60;;;;;;4975299;28;20432;-78
2022/04/20 15:39:09;;;;;;;6.97;3.00;;;22.80;29.80;;;;;;4974906;28;20082;-77
2022/04/20 15:41:35;;;;;;;4.90;3.20;;;22.50;30.30;;;;;;4975265;28;20105;-78
2022/04/20 15:44:02;;;;;;;5.65;2.75;;;22.10;30.40;;;;;;4975162;28;20101;-78
2022/04/20 15:46:28;;;;;;;5.80;2.88;;;21.60;31.60;;;;;;4957564;28;20034;-78
2022/04/20 15:48:54;;;;;;;4.05;2.50;;;21.20;31.00;;;;;;4974836;28;20026;-77
2022/04/20 15:51:19;;;;;;;9.68;2.78;;;21.70;32.30;;;;;;4974701;28;20030;-77
2022/04/20 15:53:45;;;;;;;4.78;2.83;;;21.60;32.60;;;;;;4974568;28;20023;-77
2022/04/20 16:01:39;;;;;;;5.10;3.00;;;21.80;33.00;;;;;;4965650;28;20502;-80
2022/04/20 16:04:05;;;;;;;6.47;2.50;;;22.10;32.50;;;;;;4958362;28;20472;-80
2022/04/20 16:06:31;;;;;;;3.05;2.28;;;22.10;32.90;;;;;;4966284;28;20093;-78
2022/04/20 17:08:31;;;;;;;6.43;2.83;;;18.00;39.60;;;;;;5990432;23;20017;-78
2022/04/20 17:10:56;;;;;;;8.30;3.30;;;18.00;43.00;;;;;;4985949;28;20026;-78
2022/04/20 17:13:23;;;;;;;6.45;3.40;;;17.80;44.30;;;;;;4991951;28;20022;-78
2022/04/20 17:15:48;;;;;;;8.77;3.40;;;17.70;46.10;;;;;;4973606;28;20132;-78